KRCR/RCR METAR and TAF weather

Enter ICAO airport designator
Station Type Date Time Source
KRCR METAR 2022/06/30 12:55 UTC NOAA

KRCR 301255Z AUTO 20008KT 10SM CLR 24/15 A3016 RMK AO2


Station Type Date Time Source
KRCR Decoded METAR 2022/06/30 12:55 UTC NOAA

Station name not available
Jun 30, 2022 - 08:55 AM EDT / 2022.06.30 1255 UTC
Wind: from the SSW (200 degrees) at 9 MPH (8 KT):0
Visibility: 10 mile(s):0
Sky conditions: clear
Temperature: 75 F (24 C)
Dew Point: 59 F (15 C)
Relative Humidity: 57%
Pressure (altimeter): 30.16 in. Hg (1021 hPa)
ob: KRCR 301255Z AUTO 20008KT 10SM CLR 24/15 A3016 RMK AO2
cycle: 13

Station Type Date Time Source
KRCR TAF UTC NOAA

Error!

Example: see airport list